createdAt,value
2022-10-16T00:00:23.169Z,14.45
2022-10-16T00:01:26.295Z,14.54
2022-10-16T00:02:29.121Z,14.64
2022-10-16T00:03:30.607Z,14.64
2022-10-16T00:04:32.050Z,14.64
2022-10-16T00:05:34.473Z,14.60
2022-10-16T00:06:35.933Z,14.65
2022-10-16T00:07:37.353Z,14.58
2022-10-16T00:08:39.725Z,14.57
2022-10-16T00:09:41.162Z,14.55
2022-10-16T00:10:42.576Z,14.61
2022-10-16T00:11:44.367Z,14.58
2022-10-16T00:12:45.842Z,14.56
2022-10-16T00:13:49.074Z,14.59
2022-10-16T00:14:50.525Z,14.57
2022-10-16T00:15:51.919Z,14.31
2022-10-16T00:16:53.345Z,14.46
2022-10-16T00:17:56.145Z,14.38
2022-10-16T00:18:58.157Z,14.43
2022-10-16T00:19:59.661Z,14.41
2022-10-16T00:21:06.280Z,14.42
2022-10-16T00:22:07.749Z,14.37
2022-10-16T00:23:09.206Z,14.28
2022-10-16T00:24:11.222Z,14.29
2022-10-16T00:25:12.702Z,14.17
2022-10-16T00:26:18.646Z,14.31
2022-10-16T00:27:20.107Z,14.29
2022-10-16T00:28:21.526Z,14.34
2022-10-16T00:29:23.069Z,14.42
2022-10-16T00:30:24.503Z,14.38
2022-10-16T00:31:26.747Z,14.37
2022-10-16T00:32:28.534Z,14.43
2022-10-16T00:33:31.562Z,14.46
2022-10-16T00:34:32.995Z,14.41
2022-10-16T00:35:34.430Z,14.50
2022-10-16T00:36:35.885Z,14.48
2022-10-16T00:37:37.336Z,14.47
2022-10-16T00:38:39.153Z,14.40
2022-10-16T00:39:40.584Z,14.50
2022-10-16T00:40:42.071Z,14.58
2022-10-16T00:41:43.549Z,14.50
2022-10-16T00:42:44.954Z,14.52
2022-10-16T00:43:48.180Z,14.57
2022-10-16T00:44:52.496Z,14.57
2022-10-16T00:45:54.011Z,14.48
2022-10-16T00:46:55.519Z,14.56
2022-10-16T00:47:57.603Z,14.54
2022-10-16T00:49:05.845Z,14.50
2022-10-16T00:50:10.375Z,14.49
2022-10-16T00:51:11.976Z,14.50
2022-10-16T00:52:15.316Z,14.51
2022-10-16T00:53:18.163Z,14.52
2022-10-16T00:54:22.582Z,14.50
2022-10-16T00:55:24.767Z,14.53
2022-10-16T00:56:26.243Z,14.50
2022-10-16T00:57:28.023Z,14.51
2022-10-16T00:58:29.500Z,14.47
2022-10-16T00:59:33.868Z,14.43
2022-10-16T01:00:35.285Z,14.46
2022-10-16T01:01:36.850Z,14.40
2022-10-16T01:02:38.329Z,14.42
2022-10-16T01:03:39.873Z,14.41
2022-10-16T01:04:45.429Z,14.41
2022-10-16T01:05:52.564Z,14.38
2022-10-16T01:07:03.334Z,14.37
2022-10-16T01:08:13.197Z,14.33
2022-10-16T01:09:21.195Z,14.32
2022-10-16T01:10:29.611Z,14.28
2022-10-16T01:11:34.728Z,14.27
2022-10-16T01:12:45.440Z,14.24
2022-10-16T01:13:54.165Z,14.20
2022-10-16T01:14:59.678Z,14.22
2022-10-16T01:16:06.469Z,14.18
2022-10-16T01:17:12.911Z,14.14
2022-10-16T01:18:19.475Z,14.11
2022-10-16T01:19:31.700Z,14.18
2022-10-16T01:20:38.375Z,14.22
2022-10-16T01:21:43.809Z,14.18
2022-10-16T01:22:57.431Z,14.19
2022-10-16T01:24:07.470Z,14.21
2022-10-16T01:25:16.396Z,14.22
2022-10-16T01:26:36.918Z,14.17
2022-10-16T01:27:41.627Z,14.19
2022-10-16T01:28:47.407Z,14.29
2022-10-16T01:29:54.570Z,14.15
2022-10-16T01:30:59.776Z,14.25
2022-10-16T01:32:07.501Z,14.25
2022-10-16T01:33:15.599Z,14.20
2022-10-16T01:34:22.168Z,14.17
2022-10-16T01:35:27.456Z,14.27
2022-10-16T01:36:38.035Z,14.18
2022-10-16T01:37:45.176Z,14.20
2022-10-16T01:38:50.600Z,14.15
2022-10-16T01:39:55.399Z,14.17
2022-10-16T01:41:01.597Z,14.16
2022-10-16T01:42:08.758Z,14.14
2022-10-16T01:43:16.434Z,14.22
2022-10-16T01:44:22.971Z,14.17
2022-10-16T01:45:24.701Z,14.25
2022-10-16T01:46:27.419Z,14.24
2022-10-16T01:47:32.451Z,14.19
2022-10-16T01:48:34.995Z,14.22
2022-10-16T01:49:39.601Z,14.23
2022-10-16T01:50:44.127Z,14.25
2022-10-16T01:51:50.698Z,14.28
2022-10-16T01:52:55.436Z,14.27
2022-10-16T01:54:01.226Z,14.23
2022-10-16T01:55:07.201Z,14.22
2022-10-16T01:56:13.139Z,14.24
2022-10-16T01:57:16.920Z,14.22
2022-10-16T01:58:19.696Z,14.31
2022-10-16T01:59:25.521Z,14.28
2022-10-16T02:00:28.120Z,14.29
2022-10-16T02:01:32.692Z,14.27
2022-10-16T02:02:35.069Z,14.27
2022-10-16T02:03:40.308Z,14.24
2022-10-16T02:04:46.334Z,14.28
2022-10-16T02:05:52.628Z,14.25
2022-10-16T02:06:54.497Z,14.24
2022-10-16T02:07:55.999Z,14.33
2022-10-16T02:08:57.644Z,14.29
2022-10-16T02:10:01.178Z,14.29
2022-10-16T02:11:03.405Z,14.26
2022-10-16T02:12:11.968Z,14.20
2022-10-16T02:13:19.828Z,14.22
2022-10-16T02:14:22.787Z,14.26
2022-10-16T02:15:24.270Z,14.30
2022-10-16T02:16:34.745Z,14.30
2022-10-16T02:17:36.365Z,14.29
2022-10-16T02:18:37.941Z,14.26
2022-10-16T02:19:39.809Z,14.26
2022-10-16T02:20:52.014Z,14.31
2022-10-16T02:21:57.117Z,14.25
2022-10-16T02:22:59.507Z,14.28
2022-10-16T02:24:07.621Z,14.34
2022-10-16T02:25:11.543Z,14.35
2022-10-16T02:26:16.411Z,14.38
2022-10-16T02:27:25.442Z,14.34
2022-10-16T02:28:34.958Z,14.31
2022-10-16T02:29:41.769Z,14.32
2022-10-16T02:30:47.348Z,14.34
2022-10-16T02:31:53.865Z,14.31
2022-10-16T02:32:56.988Z,14.38
2022-10-16T02:34:01.206Z,14.33
2022-10-16T02:35:03.967Z,14.42
2022-10-16T02:36:06.033Z,14.33
2022-10-16T02:37:08.025Z,14.33
2022-10-16T02:39:19.236Z,14.32
2022-10-16T02:40:24.337Z,14.35
2022-10-16T02:41:27.035Z,14.24
2022-10-16T02:42:29.793Z,14.29
2022-10-16T02:43:31.278Z,14.26
2022-10-16T02:44:32.724Z,14.38
2022-10-16T02:45:35.588Z,14.32
2022-10-16T02:46:37.014Z,14.27
2022-10-16T02:47:38.649Z,14.32
2022-10-16T02:48:40.089Z,14.31
2022-10-16T02:49:41.531Z,14.39
2022-10-16T02:50:42.923Z,14.34
2022-10-16T02:51:44.371Z,14.37
2022-10-16T02:52:45.780Z,14.42
2022-10-16T02:53:47.200Z,14.39
2022-10-16T02:54:48.743Z,14.47
2022-10-16T02:55:50.268Z,14.48
2022-10-16T02:56:51.720Z,14.45
2022-10-16T02:57:53.156Z,14.48
2022-10-16T02:58:54.578Z,14.48
2022-10-16T02:59:55.999Z,14.31
2022-10-16T03:00:58.826Z,14.47
2022-10-16T03:02:00.365Z,14.46
2022-10-16T03:03:01.886Z,14.45
2022-10-16T03:04:03.486Z,14.46
2022-10-16T03:05:06.056Z,14.45
2022-10-16T03:06:07.469Z,14.44
2022-10-16T03:07:08.891Z,14.49
2022-10-16T03:08:10.341Z,14.50
2022-10-16T03:09:11.753Z,14.43
2022-10-16T03:10:13.329Z,14.41
2022-10-16T03:11:14.765Z,14.52
2022-10-16T03:12:16.213Z,14.46
2022-10-16T03:13:17.878Z,14.47
2022-10-16T03:14:19.349Z,14.40
2022-10-16T03:15:20.936Z,14.30
2022-10-16T03:16:23.755Z,14.39
2022-10-16T03:17:25.554Z,14.37
2022-10-16T03:18:27.251Z,14.34
2022-10-16T03:19:28.674Z,14.37
2022-10-16T03:20:30.074Z,14.27
2022-10-16T03:21:31.512Z,14.28
2022-10-16T03:22:32.986Z,14.28
2022-10-16T03:23:34.402Z,14.33
2022-10-16T03:24:35.874Z,14.32
2022-10-16T03:25:37.286Z,14.39
2022-10-16T03:26:38.703Z,14.34
2022-10-16T03:27:40.126Z,14.39
2022-10-16T03:28:41.627Z,14.33
2022-10-16T03:29:43.070Z,14.42
2022-10-16T03:30:44.944Z,14.30
2022-10-16T03:31:47.700Z,14.35
2022-10-16T03:32:49.141Z,14.39
2022-10-16T03:33:50.542Z,14.39
2022-10-16T03:34:51.992Z,14.40
2022-10-16T03:35:54.003Z,14.40
2022-10-16T03:36:55.458Z,14.48
2022-10-16T03:37:56.956Z,14.42
2022-10-16T03:38:58.447Z,14.36
2022-10-16T03:40:00.299Z,14.43
2022-10-16T03:41:01.762Z,14.47
2022-10-16T03:42:03.508Z,14.38
2022-10-16T03:43:05.002Z,14.32
2022-10-16T03:44:06.527Z,14.31
2022-10-16T03:45:08.552Z,14.24
2022-10-16T03:46:10.092Z,14.25
2022-10-16T03:47:12.895Z,14.18
2022-10-16T03:48:14.326Z,14.10
2022-10-16T03:49:15.745Z,14.19
2022-10-16T03:50:17.243Z,14.23
2022-10-16T03:51:18.664Z,14.15
2022-10-16T03:52:20.146Z,14.15
2022-10-16T03:53:21.682Z,14.24
2022-10-16T03:54:23.356Z,14.24
2022-10-16T03:55:24.787Z,14.18
2022-10-16T03:56:27.107Z,14.13
2022-10-16T03:57:28.994Z,14.16
2022-10-16T03:58:30.662Z,14.24
2022-10-16T03:59:32.105Z,14.31
2022-10-16T04:00:33.555Z,14.23
2022-10-16T04:01:35.083Z,14.18
2022-10-16T04:02:37.885Z,14.25
2022-10-16T04:03:39.324Z,14.13
2022-10-16T04:04:40.760Z,14.15
2022-10-16T04:05:42.296Z,14.19
2022-10-16T04:06:43.710Z,14.16
2022-10-16T04:07:45.134Z,14.22
2022-10-16T04:08:46.637Z,14.21
2022-10-16T04:09:48.113Z,14.22
2022-10-16T04:10:49.546Z,14.17
2022-10-16T04:11:50.951Z,14.11
2022-10-16T04:12:52.393Z,14.16
2022-10-16T04:13:53.859Z,14.15
2022-10-16T04:14:55.325Z,14.15
2022-10-16T04:15:56.752Z,14.19
2022-10-16T04:16:58.291Z,14.11
2022-10-16T04:18:01.080Z,14.14
2022-10-16T04:19:03.147Z,14.18
2022-10-16T04:20:05.748Z,14.19
2022-10-16T04:21:07.706Z,14.18
2022-10-16T04:22:09.289Z,14.18
2022-10-16T04:23:10.998Z,14.13
2022-10-16T04:24:12.448Z,13.95
2022-10-16T04:25:13.890Z,13.93
2022-10-16T04:26:15.303Z,14.07
2022-10-16T04:27:16.696Z,14.09
2022-10-16T04:28:18.158Z,14.03
2022-10-16T04:29:19.745Z,14.02
2022-10-16T04:30:21.741Z,14.07
2022-10-16T04:31:23.176Z,14.03
2022-10-16T04:32:24.701Z,14.05
2022-10-16T04:33:27.459Z,14.02
2022-10-16T04:34:28.978Z,14.02
2022-10-16T04:35:30.468Z,14.03
2022-10-16T04:36:31.944Z,13.88
2022-10-16T04:37:33.628Z,13.96
2022-10-16T04:38:35.105Z,13.94
2022-10-16T04:39:36.568Z,13.90
2022-10-16T04:40:38.056Z,13.96
2022-10-16T04:41:39.481Z,13.99
2022-10-16T04:42:41.214Z,13.98
2022-10-16T04:43:42.608Z,13.98
2022-10-16T04:44:44.019Z,14.06
2022-10-16T04:45:45.613Z,14.09
2022-10-16T04:46:47.012Z,14.03
2022-10-16T04:47:48.433Z,14.00
2022-10-16T04:48:51.201Z,13.99
2022-10-16T04:49:52.605Z,14.03
2022-10-16T04:50:55.236Z,14.09
2022-10-16T04:51:56.803Z,14.03
2022-10-16T04:52:58.251Z,14.00
2022-10-16T04:53:59.684Z,14.05
2022-10-16T04:55:01.168Z,14.08
2022-10-16T04:56:02.959Z,13.96
2022-10-16T04:57:04.541Z,13.99
2022-10-16T04:58:06.255Z,14.00
2022-10-16T04:59:07.696Z,14.00
2022-10-16T05:00:10.271Z,14.03
2022-10-16T05:01:11.732Z,14.02
2022-10-16T05:02:13.182Z,14.05
2022-10-16T05:03:14.804Z,13.97
2022-10-16T05:04:17.776Z,13.97
2022-10-16T05:05:19.454Z,13.85
2022-10-16T05:06:20.966Z,13.91
2022-10-16T05:07:22.403Z,13.99
2022-10-16T05:08:23.909Z,14.00
2022-10-16T05:09:25.563Z,14.02
2022-10-16T05:10:27.204Z,14.01
2022-10-16T05:11:28.724Z,14.04
2022-10-16T05:12:30.196Z,14.02
2022-10-16T05:13:31.627Z,13.96
2022-10-16T05:14:33.070Z,14.01
2022-10-16T05:15:34.635Z,14.05
2022-10-16T05:16:36.103Z,14.08
2022-10-16T05:17:41.149Z,14.04
2022-10-16T05:18:45.441Z,14.02
2022-10-16T05:19:48.182Z,14.11
2022-10-16T05:20:49.625Z,14.15
2022-10-16T05:21:51.093Z,14.13
2022-10-16T05:22:52.545Z,14.12
2022-10-16T05:23:54.322Z,14.12
2022-10-16T05:24:55.757Z,14.08
2022-10-16T05:25:58.357Z,14.01
2022-10-16T05:26:59.846Z,14.09
2022-10-16T05:28:01.242Z,14.10
2022-10-16T05:29:02.798Z,14.16
2022-10-16T05:30:07.416Z,14.14
2022-10-16T05:31:11.343Z,14.14
2022-10-16T05:32:13.079Z,14.18
2022-10-16T05:33:14.546Z,14.14
2022-10-16T05:34:15.994Z,14.16
2022-10-16T05:35:19.457Z,14.14
2022-10-16T05:36:21.100Z,14.16
2022-10-16T05:37:22.600Z,14.14
2022-10-16T05:38:24.022Z,14.14
2022-10-16T05:39:25.463Z,14.17
2022-10-16T05:40:26.932Z,14.24
2022-10-16T05:41:28.336Z,14.24
2022-10-16T05:42:29.761Z,14.25
2022-10-16T05:43:32.094Z,14.24
2022-10-16T05:45:40.361Z,14.26
2022-10-16T05:46:41.826Z,14.20
2022-10-16T05:47:43.230Z,14.27
2022-10-16T05:48:44.863Z,14.18
2022-10-16T05:49:46.280Z,14.13
2022-10-16T05:50:49.043Z,14.13
2022-10-16T05:51:50.536Z,14.09
2022-10-16T05:52:51.976Z,14.17
2022-10-16T05:53:53.674Z,14.13
2022-10-16T05:54:55.128Z,14.10
2022-10-16T05:55:57.039Z,14.16
2022-10-16T05:56:58.458Z,14.17
2022-10-16T05:57:59.916Z,14.25
2022-10-16T05:59:01.465Z,14.25
2022-10-16T06:00:04.029Z,14.27
2022-10-16T06:01:07.986Z,14.26
2022-10-16T06:02:13.344Z,14.18
2022-10-16T06:03:14.783Z,14.26
2022-10-16T06:04:16.195Z,14.27
2022-10-16T06:05:17.642Z,14.31
2022-10-16T06:06:21.819Z,14.34
2022-10-16T06:07:24.127Z,14.22
2022-10-16T06:08:26.017Z,14.33
2022-10-16T06:09:27.528Z,14.31
2022-10-16T06:10:29.005Z,14.40
2022-10-16T06:11:32.298Z,14.37
2022-10-16T06:12:33.739Z,14.38
2022-10-16T06:13:35.480Z,14.38
2022-10-16T06:14:36.951Z,14.38
2022-10-16T06:15:38.591Z,14.22
2022-10-16T06:16:40.013Z,14.35
2022-10-16T06:17:41.420Z,14.36
2022-10-16T06:18:42.877Z,14.32
2022-10-16T06:19:44.399Z,14.32
2022-10-16T06:20:45.805Z,14.38
2022-10-16T06:21:48.538Z,14.42
2022-10-16T06:22:49.967Z,14.42
2022-10-16T06:23:51.662Z,14.47
2022-10-16T06:24:53.098Z,14.25
2022-10-16T06:25:54.491Z,14.28
2022-10-16T06:26:56.301Z,14.39
2022-10-16T06:27:57.748Z,14.45
2022-10-16T06:29:00.297Z,14.30
2022-10-16T06:30:01.825Z,14.52
2022-10-16T06:31:08.154Z,14.56
2022-10-16T06:32:10.052Z,14.51
2022-10-16T06:33:11.521Z,14.49
2022-10-16T06:34:13.061Z,14.55
2022-10-16T06:35:14.615Z,14.54
2022-10-16T06:36:17.946Z,14.64
2022-10-16T06:37:21.009Z,14.64
2022-10-16T06:38:22.419Z,14.52
2022-10-16T06:39:23.895Z,14.52
2022-10-16T06:40:25.437Z,14.53
2022-10-16T06:41:27.048Z,14.59
2022-10-16T06:42:28.726Z,14.61
2022-10-16T06:43:30.847Z,14.67
2022-10-16T06:44:32.273Z,14.69
2022-10-16T06:45:33.711Z,14.68
2022-10-16T06:46:35.370Z,14.67
2022-10-16T06:47:36.852Z,14.74
2022-10-16T06:48:38.892Z,14.67
2022-10-16T06:49:40.319Z,14.65
2022-10-16T06:50:41.736Z,14.66
2022-10-16T06:51:43.615Z,14.75
2022-10-16T06:52:46.552Z,14.81
2022-10-16T06:54:02.319Z,14.78
2022-10-16T06:55:05.523Z,14.85
2022-10-16T06:56:11.797Z,14.87
2022-10-16T06:57:13.248Z,14.89
2022-10-16T06:58:14.671Z,14.94
2022-10-16T06:59:16.114Z,14.97
2022-10-16T07:00:17.903Z,14.91
2022-10-16T07:01:21.339Z,14.88
2022-10-16T07:02:22.778Z,14.94
2022-10-16T07:03:24.238Z,15.00
2022-10-16T07:04:25.752Z,15.04
2022-10-16T07:05:27.321Z,15.05
2022-10-16T07:06:32.802Z,15.06
2022-10-16T07:07:34.329Z,15.09
2022-10-16T07:08:39.094Z,15.05
2022-10-16T07:09:41.292Z,15.10
2022-10-16T07:10:42.736Z,15.13
2022-10-16T07:11:44.427Z,15.17
2022-10-16T07:12:45.934Z,15.20
2022-10-16T07:13:52.569Z,15.19
2022-10-16T07:14:56.622Z,15.22
2022-10-16T07:15:58.027Z,15.29
2022-10-16T07:16:59.430Z,15.22
2022-10-16T07:18:01.036Z,15.22
2022-10-16T07:19:03.991Z,15.11
2022-10-16T07:20:06.455Z,15.22
2022-10-16T07:21:10.166Z,15.27
2022-10-16T07:22:11.577Z,15.33
2022-10-16T07:23:13.008Z,15.27
2022-10-16T07:24:16.936Z,15.24
2022-10-16T07:25:18.836Z,15.35
2022-10-16T07:26:20.441Z,15.33
2022-10-16T07:27:21.903Z,15.30
2022-10-16T07:28:23.333Z,15.37
2022-10-16T07:29:24.788Z,15.39
2022-10-16T07:30:26.279Z,15.06
2022-10-16T07:31:28.425Z,15.10
2022-10-16T07:32:29.962Z,15.16
2022-10-16T07:33:32.274Z,15.10
2022-10-16T07:34:33.721Z,15.04
2022-10-16T07:35:35.179Z,15.20
2022-10-16T07:36:36.652Z,15.07
2022-10-16T07:37:38.146Z,15.26
2022-10-16T07:38:39.599Z,15.20
2022-10-16T07:39:42.350Z,15.26
2022-10-16T07:40:43.794Z,15.28
2022-10-16T07:41:45.279Z,15.39
2022-10-16T07:42:46.738Z,15.40
2022-10-16T07:43:49.227Z,15.40
2022-10-16T07:44:50.672Z,15.45
2022-10-16T07:46:58.765Z,15.40
2022-10-16T07:48:00.231Z,15.42
2022-10-16T07:49:01.626Z,15.51
2022-10-16T07:50:03.479Z,15.53
2022-10-16T07:51:06.703Z,15.57
2022-10-16T07:52:08.155Z,15.47
2022-10-16T07:53:10.482Z,15.47
2022-10-16T07:54:11.914Z,15.50
2022-10-16T07:55:14.923Z,15.51
2022-10-16T07:56:17.468Z,15.29
2022-10-16T07:57:18.860Z,15.35
2022-10-16T07:58:20.279Z,15.32
2022-10-16T07:59:21.746Z,15.30
2022-10-16T08:00:23.202Z,15.38
2022-10-16T08:01:24.696Z,15.35
2022-10-16T08:02:26.119Z,15.18
2022-10-16T08:03:27.555Z,15.31
2022-10-16T08:04:29.145Z,15.15
2022-10-16T08:05:32.043Z,15.16
2022-10-16T08:06:37.150Z,15.21
2022-10-16T08:07:38.574Z,15.22
2022-10-16T08:08:40.074Z,15.32
2022-10-16T08:09:41.476Z,15.45
2022-10-16T08:10:44.274Z,15.15
2022-10-16T08:11:45.689Z,15.18
2022-10-16T08:12:47.171Z,15.27
2022-10-16T08:13:48.596Z,15.28
2022-10-16T08:14:50.050Z,15.24
2022-10-16T08:15:51.545Z,15.37
2022-10-16T08:16:52.954Z,15.39
2022-10-16T08:17:58.843Z,15.38
2022-10-16T08:19:00.295Z,15.51
2022-10-16T08:20:01.976Z,15.48
2022-10-16T08:21:04.167Z,15.37
2022-10-16T08:22:05.626Z,15.41
2022-10-16T08:23:07.132Z,15.43
2022-10-16T08:24:08.572Z,15.40
2022-10-16T08:25:10.072Z,15.27
2022-10-16T08:26:13.437Z,15.19
2022-10-16T08:27:14.862Z,15.23
2022-10-16T08:28:16.331Z,15.29
2022-10-16T08:29:17.763Z,15.31
2022-10-16T08:30:21.513Z,15.39
2022-10-16T08:31:23.536Z,15.47
2022-10-16T08:32:27.507Z,15.30
2022-10-16T08:33:29.192Z,15.44
2022-10-16T08:34:30.619Z,15.50
2022-10-16T08:35:32.083Z,15.39
2022-10-16T08:36:33.478Z,15.46
2022-10-16T08:37:35.413Z,15.50
2022-10-16T08:38:36.863Z,15.40
2022-10-16T08:39:38.273Z,15.40
2022-10-16T08:40:39.708Z,15.49
2022-10-16T08:42:05.495Z,15.50
2022-10-16T08:43:29.910Z,15.58
2022-10-16T08:44:57.131Z,15.52
2022-10-16T08:46:16.792Z,15.47
2022-10-16T08:47:20.932Z,15.54
2022-10-16T08:48:28.416Z,15.57
2022-10-16T08:49:30.956Z,15.56
2022-10-16T08:50:36.971Z,15.51
2022-10-16T08:51:40.412Z,15.39
2022-10-16T08:52:46.056Z,15.47
2022-10-16T08:53:52.046Z,15.36
2022-10-16T08:54:56.191Z,15.42
2022-10-16T08:55:57.988Z,15.40
2022-10-16T08:57:11.964Z,15.57
2022-10-16T08:58:15.127Z,15.56
2022-10-16T08:59:17.787Z,15.50
2022-10-16T09:00:19.956Z,15.50
2022-10-16T09:01:25.085Z,15.39
2022-10-16T09:02:33.319Z,15.46
2022-10-16T09:03:47.944Z,15.57
2022-10-16T09:05:03.331Z,15.43
2022-10-16T09:06:17.198Z,15.43
2022-10-16T09:07:26.660Z,15.39
2022-10-16T09:08:38.011Z,15.38
2022-10-16T09:09:50.445Z,15.50
2022-10-16T09:10:58.158Z,15.44
2022-10-16T09:12:08.735Z,15.55
2022-10-16T09:13:20.073Z,15.38
2022-10-16T09:14:41.269Z,15.63
2022-10-16T09:15:50.906Z,15.73
2022-10-16T09:16:57.522Z,15.73
2022-10-16T09:18:07.152Z,15.57
2022-10-16T09:19:17.843Z,15.78
2022-10-16T09:20:30.171Z,15.58
2022-10-16T09:21:35.221Z,15.68
2022-10-16T09:22:37.232Z,15.68
2022-10-16T09:23:39.147Z,15.68
2022-10-16T09:24:40.706Z,15.62
2022-10-16T09:25:45.565Z,15.66
2022-10-16T09:26:47.900Z,15.68
2022-10-16T09:27:53.952Z,15.76
2022-10-16T09:28:55.467Z,15.78
2022-10-16T09:29:59.654Z,15.82
2022-10-16T09:31:01.613Z,15.94
2022-10-16T09:32:12.265Z,15.98
2022-10-16T09:33:15.460Z,16.08
2022-10-16T09:34:27.130Z,16.00
2022-10-16T09:35:36.053Z,16.16
2022-10-16T09:36:42.320Z,15.87
2022-10-16T09:37:45.195Z,16.02
2022-10-16T09:38:46.625Z,16.16
2022-10-16T09:39:49.790Z,16.09
2022-10-16T09:40:58.927Z,16.35
2022-10-16T09:42:05.223Z,16.32
2022-10-16T09:43:25.478Z,16.37
2022-10-16T09:44:29.107Z,16.39
2022-10-16T09:45:30.633Z,16.49
2022-10-16T09:46:33.894Z,16.56
2022-10-16T09:47:42.928Z,16.50
2022-10-16T09:48:45.633Z,16.60
2022-10-16T09:49:54.901Z,16.53
2022-10-16T09:50:58.081Z,16.57
2022-10-16T09:52:06.395Z,16.93
2022-10-16T09:53:12.924Z,16.95
2022-10-16T09:54:16.562Z,16.92
2022-10-16T09:55:19.399Z,16.68
2022-10-16T09:56:26.177Z,16.83
2022-10-16T09:57:29.026Z,16.71
2022-10-16T09:58:32.177Z,16.89
2022-10-16T09:59:33.755Z,16.94
2022-10-16T10:00:35.259Z,16.97
2022-10-16T10:01:40.165Z,17.05
2022-10-16T10:02:41.730Z,17.06
2022-10-16T10:03:44.840Z,16.97
2022-10-16T10:04:51.386Z,17.00
2022-10-16T10:05:52.852Z,17.13
2022-10-16T10:06:56.455Z,17.22
2022-10-16T10:07:59.303Z,17.20
2022-10-16T10:09:05.387Z,17.06
2022-10-16T10:10:20.614Z,17.13
2022-10-16T10:11:37.835Z,17.09
2022-10-16T10:12:39.539Z,16.94
2022-10-16T10:13:42.342Z,16.93
2022-10-16T10:14:47.714Z,17.04
2022-10-16T10:15:49.745Z,17.04
2022-10-16T10:16:52.251Z,17.04
2022-10-16T10:17:55.488Z,16.95
2022-10-16T10:19:00.028Z,17.16
2022-10-16T10:20:16.919Z,17.10
2022-10-16T10:21:18.344Z,17.25
2022-10-16T10:22:24.361Z,17.30
2022-10-16T10:23:28.298Z,17.32
2022-10-16T10:24:29.726Z,17.34
2022-10-16T10:25:44.165Z,17.41
2022-10-16T10:26:56.309Z,17.42
2022-10-16T10:28:15.983Z,17.53
2022-10-16T10:29:29.557Z,17.44
2022-10-16T10:30:39.523Z,17.16
2022-10-16T10:31:50.147Z,17.29
2022-10-16T10:33:10.247Z,17.19
2022-10-16T10:34:25.943Z,16.97
2022-10-16T10:35:35.802Z,17.03
2022-10-16T10:36:39.474Z,17.18
2022-10-16T10:38:03.060Z,17.24
2022-10-16T10:39:11.985Z,17.29
2022-10-16T10:40:24.686Z,17.12
2022-10-16T10:41:45.765Z,17.22
2022-10-16T10:42:54.594Z,17.12
2022-10-16T10:44:08.681Z,17.29
2022-10-16T10:45:21.456Z,17.19
2022-10-16T10:46:32.949Z,17.19
2022-10-16T10:47:44.187Z,17.24
2022-10-16T10:49:15.790Z,17.10
2022-10-16T10:50:23.547Z,17.34
2022-10-16T10:51:32.889Z,17.17
2022-10-16T10:52:45.899Z,17.27
2022-10-16T10:53:56.815Z,17.40
2022-10-16T10:55:15.283Z,17.09
2022-10-16T10:56:31.223Z,17.25
2022-10-16T10:57:42.287Z,17.17
2022-10-16T10:59:29.081Z,17.15
2022-10-16T11:00:43.836Z,17.11
2022-10-16T11:01:51.272Z,17.16
2022-10-16T11:03:07.812Z,17.13
2022-10-16T11:04:27.315Z,16.99
2022-10-16T11:05:37.667Z,17.24
2022-10-16T11:07:54.547Z,17.25
2022-10-16T11:09:01.732Z,17.04
2022-10-16T11:10:06.689Z,17.27
2022-10-16T11:11:14.834Z,17.25
2022-10-16T11:12:20.195Z,17.17
2022-10-16T11:13:30.182Z,17.14
2022-10-16T11:14:36.853Z,17.16
2022-10-16T11:15:42.307Z,17.06
2022-10-16T11:16:49.123Z,17.19
2022-10-16T11:17:55.403Z,17.03
2022-10-16T11:19:03.695Z,17.19
2022-10-16T11:20:15.386Z,17.26
2022-10-16T11:21:20.478Z,17.19
2022-10-16T11:22:27.702Z,17.36
2022-10-16T11:23:34.527Z,17.47
2022-10-16T11:24:43.361Z,17.36
2022-10-16T11:25:47.446Z,17.34
2022-10-16T11:26:51.373Z,17.34
2022-10-16T11:27:58.561Z,17.46
2022-10-16T11:29:02.833Z,17.73
2022-10-16T11:30:13.140Z,17.71
2022-10-16T11:31:21.704Z,17.79
2022-10-16T11:32:27.405Z,17.94
2022-10-16T11:33:32.922Z,18.03
2022-10-16T11:34:39.525Z,18.11
2022-10-16T11:35:47.411Z,18.08
2022-10-16T11:36:52.421Z,18.10
2022-10-16T11:37:56.572Z,17.95
2022-10-16T11:39:03.672Z,17.92
2022-10-16T11:40:19.951Z,18.23
2022-10-16T11:41:28.460Z,18.46
2022-10-16T11:42:36.981Z,18.62
2022-10-16T11:43:43.544Z,18.61
2022-10-16T11:44:54.352Z,18.64
2022-10-16T11:45:58.800Z,18.59
2022-10-16T11:47:33.946Z,18.60
2022-10-16T11:48:39.906Z,18.79
2022-10-16T11:49:42.814Z,18.90
2022-10-16T11:50:50.839Z,18.80
2022-10-16T11:52:01.518Z,18.94
2022-10-16T11:53:12.381Z,18.68
2022-10-16T11:54:23.155Z,18.72
2022-10-16T11:55:30.518Z,18.75
2022-10-16T11:56:36.523Z,18.80
2022-10-16T11:57:44.089Z,18.75
2022-10-16T11:58:56.921Z,18.72
2022-10-16T12:00:02.664Z,18.82
2022-10-16T12:01:18.534Z,18.69
2022-10-16T12:02:51.811Z,18.89
2022-10-16T12:04:03.596Z,18.96
2022-10-16T12:05:19.502Z,19.01
2022-10-16T12:06:31.887Z,18.95
2022-10-16T12:07:38.036Z,19.08
2022-10-16T12:08:40.749Z,19.18
2022-10-16T12:09:42.791Z,18.96
2022-10-16T12:10:46.179Z,18.84
2022-10-16T12:11:47.602Z,18.89
2022-10-16T12:12:49.467Z,18.96
2022-10-16T12:13:51.509Z,19.10
2022-10-16T12:15:25.772Z,18.93
2022-10-16T12:16:24.582Z,18.91
2022-10-16T12:17:28.442Z,18.97
2022-10-16T12:18:31.543Z,18.95
2022-10-16T12:19:33.501Z,19.23
2022-10-16T12:20:35.010Z,19.23
2022-10-16T12:21:36.515Z,19.31
2022-10-16T12:22:41.899Z,19.11
2022-10-16T12:23:49.337Z,19.19
2022-10-16T12:24:52.253Z,19.18
2022-10-16T12:25:56.251Z,19.20
2022-10-16T12:26:58.078Z,19.25
2022-10-16T12:28:04.769Z,19.31
2022-10-16T12:29:19.994Z,19.37
2022-10-16T12:30:24.132Z,19.34
2022-10-16T12:31:42.704Z,19.51
2022-10-16T12:32:55.015Z,19.59
2022-10-16T12:34:03.709Z,19.62
2022-10-16T12:35:07.772Z,19.52
2022-10-16T12:36:14.600Z,19.52
2022-10-16T12:37:22.615Z,19.51
2022-10-16T12:38:28.186Z,19.46
2022-10-16T12:39:29.679Z,19.48
2022-10-16T12:40:33.503Z,19.41
2022-10-16T12:41:36.810Z,19.37
2022-10-16T12:42:38.321Z,19.40
2022-10-16T12:43:42.289Z,19.44
2022-10-16T12:44:43.749Z,19.48
2022-10-16T12:45:45.175Z,19.41
2022-10-16T12:46:46.611Z,19.45
2022-10-16T12:47:50.917Z,19.46
2022-10-16T12:49:08.463Z,19.44
2022-10-16T12:50:31.715Z,19.52
2022-10-16T12:51:36.507Z,19.56
2022-10-16T12:52:39.850Z,19.55
2022-10-16T12:53:41.292Z,19.56
2022-10-16T12:54:43.842Z,19.72
2022-10-16T12:55:56.976Z,19.70
2022-10-16T12:57:11.185Z,19.71
2022-10-16T12:58:27.260Z,19.64
2022-10-16T12:59:43.133Z,19.75
2022-10-16T13:00:46.458Z,19.76
2022-10-16T13:02:15.775Z,19.90
2022-10-16T13:04:07.937Z,19.97
2022-10-16T13:05:30.943Z,19.93
2022-10-16T13:06:43.870Z,20.04
2022-10-16T13:07:57.151Z,20.04
2022-10-16T13:09:31.284Z,20.04
2022-10-16T13:10:41.035Z,20.01
2022-10-16T13:11:58.055Z,20.07
2022-10-16T13:13:15.353Z,20.12
2022-10-16T13:14:45.358Z,20.17
2022-10-16T13:16:07.558Z,20.13
2022-10-16T13:17:17.891Z,20.13
2022-10-16T13:18:28.841Z,20.13
2022-10-16T13:19:36.934Z,20.14
2022-10-16T13:20:59.211Z,20.13
2022-10-16T13:22:09.378Z,20.18
2022-10-16T13:23:20.758Z,20.17
2022-10-16T13:24:32.392Z,20.16
2022-10-16T13:25:46.844Z,20.16
2022-10-16T13:26:56.874Z,20.12
2022-10-16T13:28:05.016Z,20.11
2022-10-16T13:29:06.742Z,20.11
2022-10-16T13:30:16.136Z,20.11
2022-10-16T13:31:20.902Z,20.24
2022-10-16T13:32:22.902Z,20.22
2022-10-16T13:33:33.252Z,20.29
2022-10-16T13:34:45.677Z,20.30
2022-10-16T13:35:50.093Z,20.26
2022-10-16T13:36:53.377Z,20.33
2022-10-16T13:38:06.877Z,20.30
2022-10-16T13:39:14.479Z,20.29
2022-10-16T13:40:22.028Z,20.14
2022-10-16T13:41:23.504Z,20.19
2022-10-16T13:42:28.389Z,20.25
2022-10-16T13:43:33.529Z,20.32
2022-10-16T13:44:40.914Z,20.23
2022-10-16T13:45:42.391Z,20.30
2022-10-16T13:46:43.827Z,20.25
2022-10-16T13:47:45.302Z,20.23
2022-10-16T13:48:58.005Z,20.24
2022-10-16T13:50:04.349Z,20.13
2022-10-16T13:51:12.449Z,20.16
2022-10-16T13:52:19.548Z,20.10
2022-10-16T13:53:22.337Z,20.21
2022-10-16T13:54:24.734Z,20.18
2022-10-16T13:55:26.260Z,20.16
2022-10-16T13:56:30.056Z,19.85
2022-10-16T13:57:31.508Z,19.85
2022-10-16T13:58:33.589Z,19.76
2022-10-16T13:59:37.053Z,19.84